Weather at Aeródromo Benagéber

Public forecast

Using degrees Celsius for public forecast. Weather courtesy of forecast.io.

Closest aviation weather report (METAR) to Aeródromo Benagéber

Closest report is Valencia Airport, 33.8 nm (62.6 km) ESE. Retrieved 2021/04/11 12:00 UTC (15 minutes ago):

LEVC 111200Z 25012KT 210V290 9999 FEW020 FEW025TCU SCT050 23/10 Q1012 NOSIG

Closest aviation forecast (TAF) to Aeródromo Benagéber

Closest forecast is Valencia Airport, 33.8 nm (62.6 km) ESE. Retrieved 2021/04/11 12:27 UTC (0 seconds ago):

TAF LEVC 111100Z 1112/1212 27012KT 9999 SCT020 TX24/1112Z TN08/1206Z PROB40 TEMPO 1112/1120 27015G25KT PROB40 TEMPO 1114/1123 TS SHRA SCT025CB BECMG 1118/1121 VRB03KT